sensor_id;sensor_type;location;lat;lon;timestamp;pressure;altitude;pressure_sealevel;temperature;humidity
12785;BME280;6456;42.680;23.260;2022-07-29T00:01:49;94754.06;;;21.34;100.00
12785;BME280;6456;42.680;23.260;2022-07-29T00:04:19;94809.31;;;21.64;100.00
12785;BME280;6456;42.680;23.260;2022-07-29T00:06:46;94840.53;;;21.84;100.00
12785;BME280;6456;42.680;23.260;2022-07-29T00:09:13;94814.97;;;21.57;100.00
12785;BME280;6456;42.680;23.260;2022-07-29T00:11:40;94746.34;;;21.23;100.00
12785;BME280;6456;42.680;23.260;2022-07-29T00:14:07;94842.72;;;21.82;100.00
12785;BME280;6456;42.680;23.260;2022-07-29T00:16:34;94839.75;;;21.83;100.00
12785;BME280;6456;42.680;23.260;2022-07-29T00:19:02;94777.56;;;21.42;100.00
12785;BME280;6456;42.680;23.260;2022-07-29T00:21:30;94823.97;;;21.87;100.00
12785;BME280;6456;42.680;23.260;2022-07-29T00:23:57;94768.44;;;21.48;100.00
12785;BME280;6456;42.680;23.260;2022-07-29T00:26:24;94814.34;;;21.76;100.00
12785;BME280;6456;42.680;23.260;2022-07-29T00:28:53;94833.56;;;21.83;100.00
12785;BME280;6456;42.680;23.260;2022-07-29T00:31:19;94825.59;;;21.72;100.00
12785;BME280;6456;42.680;23.260;2022-07-29T00:33:46;94795.72;;;21.50;100.00
12785;BME280;6456;42.680;23.260;2022-07-29T00:36:13;94815.41;;;21.74;100.00
12785;BME280;6456;42.680;23.260;2022-07-29T00:38:41;94805.31;;;21.61;100.00
12785;BME280;6456;42.680;23.260;2022-07-29T00:41:10;94731.50;;;20.86;100.00
12785;BME280;6456;42.680;23.260;2022-07-29T00:43:37;94831.41;;;21.36;100.00
12785;BME280;6456;42.680;23.260;2022-07-29T00:46:04;94759.03;;;20.87;100.00
12785;BME280;6456;42.680;23.260;2022-07-29T00:48:31;94804.19;;;21.14;100.00
12785;BME280;6456;42.680;23.260;2022-07-29T00:51:00;94784.16;;;20.96;100.00
12785;BME280;6456;42.680;23.260;2022-07-29T00:53:27;94785.53;;;20.88;100.00
12785;BME280;6456;42.680;23.260;2022-07-29T00:55:58;94790.06;;;20.83;100.00
12785;BME280;6456;42.680;23.260;2022-07-29T00:58:26;94784.22;;;20.71;100.00
12785;BME280;6456;42.680;23.260;2022-07-29T01:00:53;94797.56;;;20.86;100.00
12785;BME280;6456;42.680;23.260;2022-07-29T01:03:20;94789.81;;;20.79;100.00
12785;BME280;6456;42.680;23.260;2022-07-29T01:05:47;94820.00;;;20.90;100.00
12785;BME280;6456;42.680;23.260;2022-07-29T01:08:15;94759.13;;;20.57;100.00
12785;BME280;6456;42.680;23.260;2022-07-29T01:10:43;94830.16;;;21.03;100.00
12785;BME280;6456;42.680;23.260;2022-07-29T01:13:12;94743.38;;;20.45;100.00
12785;BME280;6456;42.680;23.260;2022-07-29T01:15:44;94769.53;;;20.73;100.00
12785;BME280;6456;42.680;23.260;2022-07-29T01:18:16;94772.19;;;20.68;100.00
12785;BME280;6456;42.680;23.260;2022-07-29T01:21:00;94815.75;;;20.94;100.00
12785;BME280;6456;42.680;23.260;2022-07-29T01:23:48;94737.50;;;20.43;100.00
12785;BME280;6456;42.680;23.260;2022-07-29T01:26:41;94822.94;;;20.98;100.00
12785;BME280;6456;42.680;23.260;2022-07-29T01:29:15;94742.03;;;20.53;100.00
12785;BME280;6456;42.680;23.260;2022-07-29T01:31:52;94714.81;;;20.25;100.00
12785;BME280;6456;42.680;23.260;2022-07-29T01:34:23;94791.16;;;20.77;100.00
12785;BME280;6456;42.680;23.260;2022-07-29T01:36:57;94806.13;;;20.83;100.00
12785;BME280;6456;42.680;23.260;2022-07-29T01:39:32;94776.25;;;20.56;100.00
12785;BME280;6456;42.680;23.260;2022-07-29T01:42:08;94788.50;;;20.72;100.00
12785;BME280;6456;42.680;23.260;2022-07-29T01:44:43;94770.06;;;20.60;100.00
12785;BME280;6456;42.680;23.260;2022-07-29T01:47:15;94784.75;;;20.73;100.00
12785;BME280;6456;42.680;23.260;2022-07-29T01:49:47;94773.25;;;20.67;100.00
12785;BME280;6456;42.680;23.260;2022-07-29T01:52:20;94808.78;;;20.88;100.00
12785;BME280;6456;42.680;23.260;2022-07-29T01:54:53;94719.63;;;20.28;100.00
12785;BME280;6456;42.680;23.260;2022-07-29T01:57:26;94697.16;;;20.19;100.00
12785;BME280;6456;42.680;23.260;2022-07-29T01:59:56;94707.06;;;20.14;100.00
12785;BME280;6456;42.680;23.260;2022-07-29T02:02:24;94718.81;;;20.28;100.00
12785;BME280;6456;42.680;23.260;2022-07-29T02:04:53;94725.50;;;20.30;100.00
12785;BME280;6456;42.680;23.260;2022-07-29T02:07:21;94774.09;;;20.63;100.00
12785;BME280;6456;42.680;23.260;2022-07-29T02:09:50;94773.25;;;20.67;100.00
12785;BME280;6456;42.680;23.260;2022-07-29T02:12:19;94797.03;;;20.84;100.00
12785;BME280;6456;42.680;23.260;2022-07-29T02:14:51;94740.97;;;20.49;100.00
12785;BME280;6456;42.680;23.260;2022-07-29T02:17:22;94750.56;;;20.55;100.00
12785;BME280;6456;42.680;23.260;2022-07-29T02:19:51;94688.91;;;20.11;100.00
12785;BME280;6456;42.680;23.260;2022-07-29T02:22:19;94695.03;;;20.16;100.00
12785;BME280;6456;42.680;23.260;2022-07-29T02:24:48;94710.00;;;20.32;100.00
12785;BME280;6456;42.680;23.260;2022-07-29T02:27:18;94703.56;;;20.38;100.00
12785;BME280;6456;42.680;23.260;2022-07-29T02:29:46;94688.09;;;20.25;100.00
12785;BME280;6456;42.680;23.260;2022-07-29T02:32:16;94774.03;;;20.78;100.00
12785;BME280;6456;42.680;23.260;2022-07-29T02:34:46;94761.19;;;20.80;100.00
12785;BME280;6456;42.680;23.260;2022-07-29T02:37:15;94778.81;;;20.96;100.00
12785;BME280;6456;42.680;23.260;2022-07-29T02:39:44;94773.47;;;20.96;100.00
12785;BME280;6456;42.680;23.260;2022-07-29T02:42:15;94689.41;;;20.43;100.00
12785;BME280;6456;42.680;23.260;2022-07-29T02:44:43;94704.31;;;20.59;100.00
12785;BME280;6456;42.680;23.260;2022-07-29T02:47:14;94721.38;;;20.73;100.00
12785;BME280;6456;42.680;23.260;2022-07-29T02:49:50;94758.75;;;20.93;100.00
12785;BME280;6456;42.680;23.260;2022-07-29T02:52:21;94710.25;;;20.46;100.00
12785;BME280;6456;42.680;23.260;2022-07-29T02:54:53;94736.69;;;20.42;100.00
12785;BME280;6456;42.680;23.260;2022-07-29T02:57:25;94721.47;;;20.43;100.00
12785;BME280;6456;42.680;23.260;2022-07-29T02:59:57;94704.66;;;20.32;100.00
12785;BME280;6456;42.680;23.260;2022-07-29T03:02:27;94703.31;;;20.25;100.00
12785;BME280;6456;42.680;23.260;2022-07-29T03:04:57;94752.97;;;20.66;100.00
12785;BME280;6456;42.680;23.260;2022-07-29T03:07:25;94727.63;;;20.43;100.00
12785;BME280;6456;42.680;23.260;2022-07-29T03:09:52;94718.81;;;20.38;100.00
12785;BME280;6456;42.680;23.260;2022-07-29T03:12:19;94718.81;;;20.33;100.00
12785;BME280;6456;42.680;23.260;2022-07-29T03:14:47;94655.53;;;19.98;100.00
12785;BME280;6456;42.680;23.260;2022-07-29T03:17:14;94768.19;;;20.66;100.00
12785;BME280;6456;42.680;23.260;2022-07-29T03:19:42;94794.16;;;20.55;100.00
12785;BME280;6456;42.680;23.260;2022-07-29T03:22:10;94763.94;;;20.50;100.00
12785;BME280;6456;42.680;23.260;2022-07-29T03:24:37;94668.88;;;19.93;100.00
12785;BME280;6456;42.680;23.260;2022-07-29T03:27:05;94699.84;;;20.14;100.00
12785;BME280;6456;42.680;23.260;2022-07-29T03:29:32;94698.78;;;20.15;100.00
12785;BME280;6456;42.680;23.260;2022-07-29T03:31:58;94693.72;;;20.09;100.00
12785;BME280;6456;42.680;23.260;2022-07-29T03:34:26;94759.41;;;20.50;100.00
12785;BME280;6456;42.680;23.260;2022-07-29T03:36:52;94734.56;;;20.34;100.00
12785;BME280;6456;42.680;23.260;2022-07-29T03:39:24;94744.47;;;20.39;100.00
12785;BME280;6456;42.680;23.260;2022-07-29T03:41:54;94685.97;;;19.97;100.00
12785;BME280;6456;42.680;23.260;2022-07-29T03:44:44;94712.13;;;20.20;100.00
12785;BME280;6456;42.680;23.260;2022-07-29T03:47:44;94747.91;;;20.39;100.00
12785;BME280;6456;42.680;23.260;2022-07-29T03:50:25;94715.06;;;20.19;100.00
12785;BME280;6456;42.680;23.260;2022-07-29T03:52:52;94802.66;;;20.72;100.00
12785;BME280;6456;42.680;23.260;2022-07-29T03:55:21;94767.94;;;20.52;100.00
12785;BME280;6456;42.680;23.260;2022-07-29T03:57:49;94696.38;;;20.14;100.00
12785;BME280;6456;42.680;23.260;2022-07-29T04:00:23;94756.50;;;20.47;100.00
12785;BME280;6456;42.680;23.260;2022-07-29T04:02:51;94740.19;;;20.23;100.00
12785;BME280;6456;42.680;23.260;2022-07-29T04:05:41;94747.91;;;20.50;100.00
12785;BME280;6456;42.680;23.260;2022-07-29T04:09:19;94694.75;;;20.18;100.00
12785;BME280;6456;42.680;23.260;2022-07-29T04:11:49;94778.34;;;20.74;100.00
12785;BME280;6456;42.680;23.260;2022-07-29T04:17:41;94688.34;;;20.39;100.00
12785;BME280;6456;42.680;23.260;2022-07-29T04:20:09;94718.47;;;20.65;100.00
12785;BME280;6456;42.680;23.260;2022-07-29T04:22:38;94693.91;;;20.48;100.00
12785;BME280;6456;42.680;23.260;2022-07-29T04:25:36;94692.06;;;20.43;100.00
12785;BME280;6456;42.680;23.260;2022-07-29T04:28:15;94677.63;;;20.49;100.00
12785;BME280;6456;42.680;23.260;2022-07-29T04:30:54;94745.94;;;20.85;100.00
12785;BME280;6456;42.680;23.260;2022-07-29T04:33:27;94686.41;;;20.50;100.00
12785;BME280;6456;42.680;23.260;2022-07-29T04:35:54;94776.13;;;21.06;100.00
12785;BME280;6456;42.680;23.260;2022-07-29T04:38:22;94695.50;;;20.64;100.00
12785;BME280;6456;42.680;23.260;2022-07-29T04:40:52;94812.38;;;21.37;100.00
12785;BME280;6456;42.680;23.260;2022-07-29T04:43:25;94769.69;;;21.07;100.00
12785;BME280;6456;42.680;23.260;2022-07-29T04:45:57;94685.88;;;20.58;100.00
12785;BME280;6456;42.680;23.260;2022-07-29T04:48:25;94742.16;;;20.96;100.00
12785;BME280;6456;42.680;23.260;2022-07-29T04:50:53;94749.59;;;21.04;100.00
12785;BME280;6456;42.680;23.260;2022-07-29T04:53:24;94780.34;;;21.17;100.00
12785;BME280;6456;42.680;23.260;2022-07-29T04:55:56;94816.41;;;21.35;100.00
12785;BME280;6456;42.680;23.260;2022-07-29T04:58:25;94794.53;;;21.23;100.00
12785;BME280;6456;42.680;23.260;2022-07-29T05:00:52;94708.53;;;20.75;100.00
12785;BME280;6456;42.680;23.260;2022-07-29T05:03:19;94814.47;;;21.50;100.00
12785;BME280;6456;42.680;23.260;2022-07-29T05:06:40;94685.84;;;20.63;100.00
12785;BME280;6456;42.680;23.260;2022-07-29T05:09:07;94724.28;;;20.77;100.00
12785;BME280;6456;42.680;23.260;2022-07-29T05:11:41;94751.50;;;21.04;100.00
12785;BME280;6456;42.680;23.260;2022-07-29T05:14:34;94770.72;;;21.21;100.00
12785;BME280;6456;42.680;23.260;2022-07-29T05:17:43;94751.19;;;21.16;100.00
12785;BME280;6456;42.680;23.260;2022-07-29T05:20:29;94819.19;;;21.68;100.00
12785;BME280;6456;42.680;23.260;2022-07-29T05:29:30;94758.81;;;21.42;100.00
12785;BME280;6456;42.680;23.260;2022-07-29T05:31:57;94747.53;;;21.50;100.00
12785;BME280;6456;42.680;23.260;2022-07-29T05:34:25;94778.44;;;21.77;100.00
12785;BME280;6456;42.680;23.260;2022-07-29T05:36:52;94755.25;;;21.57;100.00
12785;BME280;6456;42.680;23.260;2022-07-29T05:39:23;94834.09;;;21.90;100.00
12785;BME280;6456;42.680;23.260;2022-07-29T05:42:04;94725.38;;;21.40;100.00
12785;BME280;6456;42.680;23.260;2022-07-29T05:44:56;94830.50;;;22.09;100.00
12785;BME280;6456;42.680;23.260;2022-07-29T05:47:23;94824.69;;;21.92;100.00
12785;BME280;6456;42.680;23.260;2022-07-29T05:50:03;94819.66;;;21.86;100.00
12785;BME280;6456;42.680;23.260;2022-07-29T05:55:29;94750.69;;;21.57;100.00
12785;BME280;6456;42.680;23.260;2022-07-29T05:57:56;94832.09;;;22.10;100.00
12785;BME280;6456;42.680;23.260;2022-07-29T06:00:25;94786.72;;;21.85;100.00
12785;BME280;6456;42.680;23.260;2022-07-29T06:02:52;94804.44;;;22.15;100.00
12785;BME280;6456;42.680;23.260;2022-07-29T06:05:19;94838.28;;;22.40;100.00
12785;BME280;6456;42.680;23.260;2022-07-29T06:07:46;94756.44;;;21.80;100.00
12785;BME280;6456;42.680;23.260;2022-07-29T06:10:13;94793.75;;;22.10;100.00
12785;BME280;6456;42.680;23.260;2022-07-29T06:12:40;94778.75;;;22.14;100.00
12785;BME280;6456;42.680;23.260;2022-07-29T06:15:08;94801.97;;;22.23;100.00
12785;BME280;6456;42.680;23.260;2022-07-29T06:17:39;94846.00;;;22.51;100.00
12785;BME280;6456;42.680;23.260;2022-07-29T06:20:07;94781.69;;;22.12;100.00
12785;BME280;6456;42.680;23.260;2022-07-29T06:22:41;94726.34;;;21.59;100.00
12785;BME280;6456;42.680;23.260;2022-07-29T06:25:09;94813.00;;;22.22;100.00
12785;BME280;6456;42.680;23.260;2022-07-29T06:27:37;94825.25;;;22.28;100.00
12785;BME280;6456;42.680;23.260;2022-07-29T06:30:05;94804.44;;;22.15;100.00
12785;BME280;6456;42.680;23.260;2022-07-29T06:32:44;94761.47;;;21.96;100.00
12785;BME280;6456;42.680;23.260;2022-07-29T06:35:13;94752.88;;;21.99;100.00
12785;BME280;6456;42.680;23.260;2022-07-29T06:37:42;94837.41;;;22.54;100.00
12785;BME280;6456;42.680;23.260;2022-07-29T06:40:10;94764.72;;;22.27;100.00
12785;BME280;6456;42.680;23.260;2022-07-29T06:42:51;94833.94;;;22.82;97.57
12785;BME280;6456;42.680;23.260;2022-07-29T06:45:19;94804.19;;;22.79;98.54
12785;BME280;6456;42.680;23.260;2022-07-29T06:47:47;94744.16;;;22.46;90.15
12785;BME280;6456;42.680;23.260;2022-07-29T06:50:17;94753.16;;;22.55;89.13
12785;BME280;6456;42.680;23.260;2022-07-29T06:52:46;94771.44;;;22.82;89.20
12785;BME280;6456;42.680;23.260;2022-07-29T06:55:13;94736.94;;;22.70;87.88
12785;BME280;6456;42.680;23.260;2022-07-29T06:57:40;94723.53;;;22.70;87.22
12785;BME280;6456;42.680;23.260;2022-07-29T07:00:08;94800.22;;;23.24;88.53
12785;BME280;6456;42.680;23.260;2022-07-29T07:02:36;94724.66;;;22.88;86.73
12785;BME280;6456;42.680;23.260;2022-07-29T07:05:07;94779.69;;;23.33;84.47
12785;BME280;6456;42.680;23.260;2022-07-29T07:07:35;94761.94;;;23.13;86.36
12785;BME280;6456;42.680;23.260;2022-07-29T07:10:04;94809.44;;;23.60;86.06
12785;BME280;6456;42.680;23.260;2022-07-29T07:12:31;94804.41;;;23.77;84.75
12785;BME280;6456;42.680;23.260;2022-07-29T07:14:58;94806.84;;;23.74;82.96
12785;BME280;6456;42.680;23.260;2022-07-29T07:17:25;94744.50;;;23.34;82.68
12785;BME280;6456;42.680;23.260;2022-07-29T07:19:52;94746.84;;;23.41;82.15
12785;BME280;6456;42.680;23.260;2022-07-29T07:22:22;94773.16;;;23.63;82.79
12785;BME280;6456;42.680;23.260;2022-07-29T07:24:49;94760.69;;;23.72;81.39
12785;BME280;6456;42.680;23.260;2022-07-29T07:27:18;94807.22;;;24.04;81.68
12785;BME280;6456;42.680;23.260;2022-07-29T07:29:45;94746.28;;;23.81;83.49
12785;BME280;6456;42.680;23.260;2022-07-29T07:32:13;94703.75;;;23.70;83.53
12785;BME280;6456;42.680;23.260;2022-07-29T07:34:41;94736.03;;;24.02;82.25
12785;BME280;6456;42.680;23.260;2022-07-29T07:37:09;94736.31;;;24.00;79.72
12785;BME280;6456;42.680;23.260;2022-07-29T07:39:39;94752.72;;;24.17;80.68
12785;BME280;6456;42.680;23.260;2022-07-29T07:42:07;94778.28;;;24.34;81.50
12785;BME280;6456;42.680;23.260;2022-07-29T07:44:36;94767.69;;;24.23;78.62
12785;BME280;6456;42.680;23.260;2022-07-29T07:47:04;94749.97;;;24.22;78.63
12785;BME280;6456;42.680;23.260;2022-07-29T07:49:32;94769.56;;;24.42;78.06
12785;BME280;6456;42.680;23.260;2022-07-29T07:51:59;94761.19;;;24.43;79.66
12785;BME280;6456;42.680;23.260;2022-07-29T07:54:26;94728.09;;;24.29;78.33
12785;BME280;6456;42.680;23.260;2022-07-29T07:56:55;94751.25;;;24.57;76.81
12785;BME280;6456;42.680;23.260;2022-07-29T07:59:22;94769.84;;;24.86;77.24
12785;BME280;6456;42.680;23.260;2022-07-29T08:01:49;94750.13;;;24.91;77.23
12785;BME280;6456;42.680;23.260;2022-07-29T08:04:16;94752.63;;;25.01;75.38
12785;BME280;6456;42.680;23.260;2022-07-29T08:06:55;94778.88;;;25.22;76.72
12785;BME280;6456;42.680;23.260;2022-07-29T08:09:24;94743.72;;;25.00;73.97
12785;BME280;6456;42.680;23.260;2022-07-29T08:11:52;94747.94;;;25.06;73.90
12785;BME280;6456;42.680;23.260;2022-07-29T08:14:21;94758.31;;;25.26;73.40
12785;BME280;6456;42.680;23.260;2022-07-29T08:16:48;94745.75;;;25.22;71.78
12785;BME280;6456;42.680;23.260;2022-07-29T08:19:19;94807.38;;;25.64;72.35
12785;BME280;6456;42.680;23.260;2022-07-29T08:21:46;94718.81;;;25.22;72.81
12785;BME280;6456;42.680;23.260;2022-07-29T08:24:14;94759.09;;;25.54;72.81
12785;BME280;6456;42.680;23.260;2022-07-29T08:26:58;94761.94;;;25.71;70.34
12785;BME280;6456;42.680;23.260;2022-07-29T08:29:27;94816.78;;;26.16;70.21
12785;BME280;6456;42.680;23.260;2022-07-29T08:31:57;94752.59;;;25.91;69.73
12785;BME280;6456;42.680;23.260;2022-07-29T08:34:28;94730.06;;;25.87;69.98
12785;BME280;6456;42.680;23.260;2022-07-29T08:37:05;94754.38;;;25.95;67.80
12785;BME280;6456;42.680;23.260;2022-07-29T08:39:32;94744.16;;;26.06;68.51
12785;BME280;6456;42.680;23.260;2022-07-29T08:41:59;94755.94;;;26.10;68.41
12785;BME280;6456;42.680;23.260;2022-07-29T08:44:28;94697.59;;;25.92;67.60
12785;BME280;6456;42.680;23.260;2022-07-29T08:46:56;94760.13;;;26.38;67.63
12785;BME280;6456;42.680;23.260;2022-07-29T08:49:23;94776.63;;;26.59;67.14
12785;BME280;6456;42.680;23.260;2022-07-29T08:51:50;94765.34;;;26.57;65.98
12785;BME280;6456;42.680;23.260;2022-07-29T08:54:19;94783.53;;;26.73;66.05
12785;BME280;6456;42.680;23.260;2022-07-29T08:56:48;94712.69;;;26.37;64.07
12785;BME280;6456;42.680;23.260;2022-07-29T08:59:18;94709.06;;;26.42;63.29
12785;BME280;6456;42.680;23.260;2022-07-29T09:01:48;94788.63;;;27.06;63.41
12785;BME280;6456;42.680;23.260;2022-07-29T09:04:15;94716.44;;;26.58;62.35
12785;BME280;6456;42.680;23.260;2022-07-29T09:06:44;94720.59;;;26.64;61.85
12785;BME280;6456;42.680;23.260;2022-07-29T09:09:11;94756.03;;;26.94;60.81
12785;BME280;6456;42.680;23.260;2022-07-29T09:11:39;94750.69;;;27.11;61.72
12785;BME280;6456;42.680;23.260;2022-07-29T09:14:06;94759.00;;;27.23;60.32
12785;BME280;6456;42.680;23.260;2022-07-29T09:16:49;94774.03;;;27.46;61.67
12785;BME280;6456;42.680;23.260;2022-07-29T09:19:21;94748.38;;;27.35;60.05
12785;BME280;6456;42.680;23.260;2022-07-29T09:21:48;94784.28;;;27.75;60.04
12785;BME280;6456;42.680;23.260;2022-07-29T09:24:36;94687.66;;;27.24;58.66
12785;BME280;6456;42.680;23.260;2022-07-29T09:27:08;94717.13;;;27.51;58.85
12785;BME280;6456;42.680;23.260;2022-07-29T09:29:36;94724.13;;;27.52;59.16
12785;BME280;6456;42.680;23.260;2022-07-29T09:32:08;94756.75;;;27.73;58.20
12785;BME280;6456;42.680;23.260;2022-07-29T09:34:35;94746.09;;;27.68;59.23
12785;BME280;6456;42.680;23.260;2022-07-29T09:37:02;94741.81;;;27.75;58.61
12785;BME280;6456;42.680;23.260;2022-07-29T09:39:30;94775.56;;;28.04;56.39
12785;BME280;6456;42.680;23.260;2022-07-29T09:41:59;94694.91;;;27.63;56.47
12785;BME280;6456;42.680;23.260;2022-07-29T09:44:27;94745.94;;;27.98;54.77
12785;BME280;6456;42.680;23.260;2022-07-29T09:47:09;94708.09;;;27.81;54.99
12785;BME280;6456;42.680;23.260;2022-07-29T09:49:50;94769.53;;;28.24;55.47
12785;BME280;6456;42.680;23.260;2022-07-29T09:52:17;94772.38;;;28.19;57.00
12785;BME280;6456;42.680;23.260;2022-07-29T09:54:45;94769.69;;;28.27;54.52
12785;BME280;6456;42.680;23.260;2022-07-29T09:57:22;94735.81;;;28.13;54.33
12785;BME280;6456;42.680;23.260;2022-07-29T09:59:56;94745.97;;;28.33;53.63
12785;BME280;6456;42.680;23.260;2022-07-29T10:02:29;94738.16;;;28.31;53.44
12785;BME280;6456;42.680;23.260;2022-07-29T10:04:56;94740.69;;;28.36;54.59
12785;BME280;6456;42.680;23.260;2022-07-29T10:07:24;94729.09;;;28.36;54.06
12785;BME280;6456;42.680;23.260;2022-07-29T10:09:56;94690.41;;;28.27;54.04
12785;BME280;6456;42.680;23.260;2022-07-29T10:12:24;94706.16;;;28.42;52.98
12785;BME280;6456;42.680;23.260;2022-07-29T10:14:51;94724.41;;;28.53;53.40
12785;BME280;6456;42.680;23.260;2022-07-29T10:17:18;94682.59;;;28.42;53.57
12785;BME280;6456;42.680;23.260;2022-07-29T10:19:47;94698.97;;;28.63;52.44
12785;BME280;6456;42.680;23.260;2022-07-29T10:22:15;94720.47;;;28.68;53.89
12785;BME280;6456;42.680;23.260;2022-07-29T10:24:42;94670.44;;;28.57;54.72
12785;BME280;6456;42.680;23.260;2022-07-29T10:27:10;94708.28;;;28.83;52.67
12785;BME280;6456;42.680;23.260;2022-07-29T10:29:38;94692.84;;;28.83;53.99
12785;BME280;6456;42.680;23.260;2022-07-29T10:32:18;94693.06;;;28.99;54.49
12785;BME280;6456;42.680;23.260;2022-07-29T10:35:01;94710.38;;;29.24;53.96
12785;BME280;6456;42.680;23.260;2022-07-29T10:37:45;94645.75;;;28.96;52.98
12785;BME280;6456;42.680;23.260;2022-07-29T10:40:20;94634.94;;;28.96;52.70
12785;BME280;6456;42.680;23.260;2022-07-29T10:43:23;94708.50;;;29.45;50.55
12785;BME280;6456;42.680;23.260;2022-07-29T10:45:56;94662.88;;;29.17;51.17
12785;BME280;6456;42.680;23.260;2022-07-29T10:48:24;94645.00;;;28.96;51.44
12785;BME280;6456;42.680;23.260;2022-07-29T10:50:57;94657.97;;;29.11;52.19
12785;BME280;6456;42.680;23.260;2022-07-29T10:53:46;94626.13;;;29.08;51.18
12785;BME280;6456;42.680;23.260;2022-07-29T10:56:24;94656.72;;;29.38;50.45
12785;BME280;6456;42.680;23.260;2022-07-29T10:59:24;94658.44;;;29.42;51.74
12785;BME280;6456;42.680;23.260;2022-07-29T11:01:52;94606.44;;;29.19;50.63
12785;BME280;6456;42.680;23.260;2022-07-29T11:07:25;94666.31;;;29.76;49.53
12785;BME280;6456;42.680;23.260;2022-07-29T11:10:19;94682.09;;;29.83;49.33
12785;BME280;6456;42.680;23.260;2022-07-29T11:12:48;94651.16;;;29.75;50.69
12785;BME280;6456;42.680;23.260;2022-07-29T11:15:18;94673.34;;;29.98;50.64
12785;BME280;6456;42.680;23.260;2022-07-29T11:18:05;94678.03;;;30.10;50.13
12785;BME280;6456;42.680;23.260;2022-07-29T11:20:37;94603.41;;;29.62;48.43
12785;BME280;6456;42.680;23.260;2022-07-29T11:23:22;94568.53;;;29.40;50.55
12785;BME280;6456;42.680;23.260;2022-07-29T11:26:15;94667.53;;;30.20;50.13
12785;BME280;6456;42.680;23.260;2022-07-29T11:28:55;94625.81;;;29.92;49.18
12785;BME280;6456;42.680;23.260;2022-07-29T11:31:35;94652.09;;;30.33;50.48
12785;BME280;6456;42.680;23.260;2022-07-29T11:34:23;94663.13;;;30.49;49.87
12785;BME280;6456;42.680;23.260;2022-07-29T11:37:20;94665.06;;;30.60;48.97
12785;BME280;6456;42.680;23.260;2022-07-29T11:40:11;94640.84;;;30.55;49.07
12785;BME280;6456;42.680;23.260;2022-07-29T11:42:43;94661.56;;;30.72;47.83
12785;BME280;6456;42.680;23.260;2022-07-29T11:45:15;94659.66;;;30.84;48.88
12785;BME280;6456;42.680;23.260;2022-07-29T11:47:53;94624.03;;;30.74;47.53
12785;BME280;6456;42.680;23.260;2022-07-29T11:50:34;94614.84;;;30.78;47.25
12785;BME280;6456;42.680;23.260;2022-07-29T11:53:03;94566.41;;;30.56;45.84
12785;BME280;6456;42.680;23.260;2022-07-29T11:55:37;94646.00;;;31.17;46.71
12785;BME280;6456;42.680;23.260;2022-07-29T11:58:04;94612.28;;;30.94;45.19
12785;BME280;6456;42.680;23.260;2022-07-29T12:00:33;94619.72;;;30.97;44.71
12785;BME280;6456;42.680;23.260;2022-07-29T12:03:02;94631.94;;;31.15;45.86
12785;BME280;6456;42.680;23.260;2022-07-29T12:05:38;94634.00;;;31.18;45.79
12785;BME280;6456;42.680;23.260;2022-07-29T12:08:11;94582.72;;;30.92;43.96
12785;BME280;6456;42.680;23.260;2022-07-29T12:10:42;94566.75;;;30.79;43.55
12785;BME280;6456;42.680;23.260;2022-07-29T12:13:11;94558.81;;;30.62;43.78
12785;BME280;6456;42.680;23.260;2022-07-29T12:15:39;94615.00;;;31.06;42.58
12785;BME280;6456;42.680;23.260;2022-07-29T12:18:14;94626.06;;;31.25;43.56
12785;BME280;6456;42.680;23.260;2022-07-29T12:20:42;94650.19;;;31.51;43.05
12785;BME280;6456;42.680;23.260;2022-07-29T12:23:10;94617.19;;;31.40;43.43
12785;BME280;6456;42.680;23.260;2022-07-29T12:25:41;94608.38;;;31.31;41.85
12785;BME280;6456;42.680;23.260;2022-07-29T12:28:10;94588.34;;;31.24;43.33
12785;BME280;6456;42.680;23.260;2022-07-29T12:30:42;94638.91;;;31.64;42.89
12785;BME280;6456;42.680;23.260;2022-07-29T12:33:20;94620.03;;;31.56;41.10
12785;BME280;6456;42.680;23.260;2022-07-29T12:35:49;94633.94;;;31.54;41.99
12785;BME280;6456;42.680;23.260;2022-07-29T12:38:16;94623.78;;;31.51;46.74
12785;BME280;6456;42.680;23.260;2022-07-29T12:40:46;94623.31;;;31.49;41.97
12785;BME280;6456;42.680;23.260;2022-07-29T12:43:14;94588.00;;;31.25;42.01
12785;BME280;6456;42.680;23.260;2022-07-29T12:45:45;94611.31;;;31.50;41.68
12785;BME280;6456;42.680;23.260;2022-07-29T12:48:12;94624.50;;;31.76;41.88
12785;BME280;6456;42.680;23.260;2022-07-29T12:50:54;94615.22;;;31.65;40.58
12785;BME280;6456;42.680;23.260;2022-07-29T12:53:21;94610.22;;;31.67;40.38
12785;BME280;6456;42.680;23.260;2022-07-29T12:55:50;94612.66;;;31.84;40.95
12785;BME280;6456;42.680;23.260;2022-07-29T12:58:29;94614.56;;;31.96;40.84
12785;BME280;6456;42.680;23.260;2022-07-29T13:01:01;94549.69;;;31.70;40.18
12785;BME280;6456;42.680;23.260;2022-07-29T13:03:28;94529.41;;;31.67;39.29
12785;BME280;6456;42.680;23.260;2022-07-29T13:06:35;94604.88;;;32.10;39.40
12785;BME280;6456;42.680;23.260;2022-07-29T13:09:10;94582.03;;;32.15;38.97
12785;BME280;6456;42.680;23.260;2022-07-29T13:11:41;94596.19;;;32.20;37.44
12785;BME280;6456;42.680;23.260;2022-07-29T13:14:10;94537.25;;;31.85;38.45
12785;BME280;6456;42.680;23.260;2022-07-29T13:17:01;94590.84;;;32.40;36.85
12785;BME280;6456;42.680;23.260;2022-07-29T13:19:36;94582.69;;;32.40;37.25
12785;BME280;6456;42.680;23.260;2022-07-29T13:22:04;94591.91;;;32.51;37.33
12785;BME280;6456;42.680;23.260;2022-07-29T13:24:30;94591.31;;;32.57;36.48
12785;BME280;6456;42.680;23.260;2022-07-29T13:26:59;94584.47;;;32.63;36.66
12785;BME280;6456;42.680;23.260;2022-07-29T13:29:25;94546.41;;;32.36;36.18
12785;BME280;6456;42.680;23.260;2022-07-29T13:31:52;94568.03;;;32.60;36.54
12785;BME280;6456;42.680;23.260;2022-07-29T13:34:23;94524.47;;;32.44;36.36
12785;BME280;6456;42.680;23.260;2022-07-29T13:37:03;94523.81;;;32.51;36.37